createdAt,value
2017-04-15T00:00:03.717Z,1004.35
2017-04-15T00:00:44.182Z,1004.38
2017-04-15T00:01:24.641Z,1004.38
2017-04-15T00:02:05.079Z,1004.37
2017-04-15T00:02:45.542Z,1004.36
2017-04-15T00:03:26.011Z,1004.35
2017-04-15T00:04:06.459Z,1004.36
2017-04-15T00:04:46.893Z,1004.37
2017-04-15T00:05:27.367Z,1004.38
2017-04-15T00:06:07.816Z,1004.39
2017-04-15T00:08:00.420Z,1004.35
2017-04-15T00:08:40.860Z,1004.38
2017-04-15T00:09:21.312Z,1004.34
2017-04-15T00:10:01.768Z,1004.34
2017-04-15T00:12:19.616Z,1004.36
2017-04-15T00:13:00.058Z,1004.36
2017-04-15T00:13:40.541Z,1004.35
2017-04-15T00:14:21.010Z,1004.34
2017-04-15T00:15:01.479Z,1004.3
2017-04-15T00:15:41.917Z,1004.31
2017-04-15T00:16:22.355Z,1004.33
2017-04-15T00:17:02.820Z,1004.34
2017-04-15T00:17:43.307Z,1004.32
2017-04-15T00:18:23.764Z,1004.33
2017-04-15T00:20:16.372Z,1004.32
2017-04-15T00:20:56.804Z,1004.36
2017-04-15T00:21:37.256Z,1004.29
2017-04-15T00:22:17.717Z,1004.27
2017-04-15T00:24:15.353Z,1004.29
2017-04-15T00:24:55.830Z,1004.29
2017-04-15T00:25:36.303Z,1004.31
2017-04-15T00:26:16.792Z,1004.32
2017-04-15T00:26:57.301Z,1004.38
2017-04-15T00:27:37.749Z,1004.3
2017-04-15T00:30:06.065Z,1004.32
2017-04-15T00:32:33.958Z,1004.28
2017-04-15T00:33:14.434Z,1004.31
2017-04-15T00:33:54.926Z,1004.28
2017-04-15T00:34:35.361Z,1004.32
2017-04-15T00:35:15.874Z,1004.26
2017-04-15T00:35:56.318Z,1004.28
2017-04-15T00:36:36.784Z,1004.26
2017-04-15T00:38:54.577Z,1004.25
2017-04-15T00:39:35.066Z,1004.29
2017-04-15T00:40:15.526Z,1004.28
2017-04-15T00:40:55.971Z,1004.25
2017-04-15T00:41:36.469Z,1004.23
2017-04-15T00:42:16.893Z,1004.23
2017-04-15T00:42:57.336Z,1004.23
2017-04-15T00:43:37.794Z,1004.2
2017-04-15T00:44:18.246Z,1004.21
2017-04-15T00:44:58.713Z,1004.2
2017-04-15T00:45:39.168Z,1004.23
2017-04-15T00:46:19.639Z,1004.2
2017-04-15T00:47:00.147Z,1004.2
2017-04-15T00:47:40.632Z,1004.19
2017-04-15T00:48:21.094Z,1004.18
2017-04-15T00:49:01.550Z,1004.22
2017-04-15T00:49:41.985Z,1004.19
2017-04-15T00:50:22.433Z,1004.19
2017-04-15T00:51:02.878Z,1004.23
2017-04-15T00:51:43.339Z,1004.2
2017-04-15T00:52:23.802Z,1004.18
2017-04-15T00:53:04.225Z,1004.17
2017-04-15T00:53:44.666Z,1004.17
2017-04-15T00:55:37.248Z,1004.2
2017-04-15T00:56:17.681Z,1004.18
2017-04-15T00:58:30.429Z,1004.18
2017-04-15T00:59:10.890Z,1004.17
2017-04-15T00:59:51.383Z,1004.15
2017-04-15T01:00:31.843Z,1004.13
2017-04-15T01:01:12.282Z,1004.16
2017-04-15T01:03:04.846Z,1004.15
2017-04-15T01:03:45.307Z,1004.15
2017-04-15T01:04:25.750Z,1004.13
2017-04-15T01:05:06.198Z,1004.15
2017-04-15T01:05:46.687Z,1004.16
2017-04-15T01:06:27.107Z,1004.16
2017-04-15T01:07:07.568Z,1004.15
2017-04-15T01:09:00.117Z,1004.18
2017-04-15T01:09:40.583Z,1004.15
2017-04-15T01:10:21.046Z,1004.16
2017-04-15T01:12:48.968Z,1004.16
2017-04-15T01:13:29.467Z,1004.15
2017-04-15T01:14:09.887Z,1004.15
2017-04-15T01:14:50.375Z,1004.17
2017-04-15T01:15:30.846Z,1004.17
2017-04-15T01:16:11.264Z,1004.14
2017-04-15T01:16:51.738Z,1004.17
2017-04-15T01:17:32.214Z,1004.2
2017-04-15T01:19:50.044Z,1004.19
2017-04-15T01:20:30.529Z,1004.21
2017-04-15T01:21:11.027Z,1004.22
2017-04-15T01:21:51.507Z,1004.21
2017-04-15T01:22:31.963Z,1004.19
2017-04-15T01:23:12.438Z,1004.18
2017-04-15T01:23:52.874Z,1004.16
2017-04-15T01:24:33.306Z,1004.21
2017-04-15T01:26:46.032Z,1004.18
2017-04-15T01:27:26.497Z,1004.2
2017-04-15T01:28:07.011Z,1004.16
2017-04-15T01:28:47.454Z,1004.2
2017-04-15T01:29:27.878Z,1004.17
2017-04-15T01:30:08.373Z,1004.23
2017-04-15T01:30:48.850Z,1004.17
2017-04-15T01:31:29.342Z,1004.21
2017-04-15T01:32:09.787Z,1004.19
2017-04-15T01:32:50.227Z,1004.21
2017-04-15T01:34:43.228Z,1004.16
2017-04-15T01:35:23.618Z,1004.19
2017-04-15T01:36:04.060Z,1004.2
2017-04-15T01:36:44.508Z,1004.16
2017-04-15T01:37:24.956Z,1004.2
2017-04-15T01:38:05.415Z,1004.2
2017-04-15T01:38:45.850Z,1004.2
2017-04-15T01:39:26.288Z,1004.21
2017-04-15T01:40:06.800Z,1004.22
2017-04-15T01:40:47.225Z,1004.23
2017-04-15T01:41:27.697Z,1004.21
2017-04-15T01:42:08.147Z,1004.23
2017-04-15T01:42:48.601Z,1004.22
2017-04-15T01:45:16.527Z,1004.22
2017-04-15T01:45:57.015Z,1004.23
2017-04-15T01:46:37.440Z,1004.22
2017-04-15T01:47:17.868Z,1004.2
2017-04-15T01:47:58.309Z,1004.21
2017-04-15T01:48:38.752Z,1004.22
2017-04-15T01:49:19.231Z,1004.18
2017-04-15T01:51:47.194Z,1004.2
2017-04-15T01:52:27.632Z,1004.19
2017-04-15T01:53:08.118Z,1004.21
2017-04-15T01:53:48.607Z,1004.21
2017-04-15T01:54:29.065Z,1004.22
2017-04-15T01:56:46.915Z,1004.24
2017-04-15T01:57:27.368Z,1004.27
2017-04-15T01:59:45.204Z,1004.28
2017-04-15T02:00:25.590Z,1004.26
2017-04-15T02:01:06.033Z,1004.28
2017-04-15T02:01:46.479Z,1004.27
2017-04-15T02:04:04.269Z,1004.26
2017-04-15T02:04:44.751Z,1004.29
2017-04-15T02:06:42.923Z,1004.28
2017-04-15T02:07:23.340Z,1004.31
2017-04-15T02:08:03.796Z,1004.33
2017-04-15T02:08:44.260Z,1004.27
2017-04-15T02:09:24.715Z,1004.3
2017-04-15T02:10:05.144Z,1004.3
2017-04-15T02:10:45.575Z,1004.28
2017-04-15T02:11:26.007Z,1004.24
2017-04-15T02:12:06.507Z,1004.27
2017-04-15T02:12:46.923Z,1004.27
2017-04-15T02:14:44.631Z,1004.27
2017-04-15T02:15:25.058Z,1004.28
2017-04-15T02:16:05.544Z,1004.26
2017-04-15T02:16:46.012Z,1004.27
2017-04-15T02:17:26.460Z,1004.29
2017-04-15T02:18:06.895Z,1004.25
2017-04-15T02:19:59.466Z,1004.3
2017-04-15T02:20:39.931Z,1004.28
2017-04-15T02:21:20.376Z,1004.29
2017-04-15T02:22:00.813Z,1004.3
2017-04-15T02:22:41.268Z,1004.3
2017-04-15T02:25:09.210Z,1004.28
2017-04-15T02:25:49.671Z,1004.26
2017-04-15T02:26:30.134Z,1004.29
2017-04-15T02:27:10.607Z,1004.31
2017-04-15T02:27:51.032Z,1004.27
2017-04-15T02:28:31.550Z,1004.27
2017-04-15T02:29:11.973Z,1004.31
2017-04-15T02:29:52.438Z,1004.28
2017-04-15T02:30:32.911Z,1004.29
2017-04-15T02:31:13.329Z,1004.28
2017-04-15T02:31:53.798Z,1004.27
2017-04-15T02:32:34.229Z,1004.27
2017-04-15T02:34:26.784Z,1004.25
2017-04-15T02:35:07.243Z,1004.25
2017-04-15T02:35:47.680Z,1004.29
2017-04-15T02:36:28.153Z,1004.26
2017-04-15T02:37:08.637Z,1004.27
2017-04-15T02:37:49.096Z,1004.28
2017-04-15T02:38:29.546Z,1004.27
2017-04-15T02:39:10.015Z,1004.28
2017-04-15T02:39:50.478Z,1004.26
2017-04-15T02:40:30.927Z,1004.22
2017-04-15T02:41:11.394Z,1004.26
2017-04-15T02:41:51.859Z,1004.25
2017-04-15T02:42:32.319Z,1004.27
2017-04-15T02:43:12.766Z,1004.26
2017-04-15T02:43:53.211Z,1004.25
2017-04-15T02:45:45.802Z,1004.22
2017-04-15T02:46:26.300Z,1004.24
2017-04-15T02:47:06.788Z,1004.25
2017-04-15T02:47:47.278Z,1004.24
2017-04-15T02:48:27.759Z,1004.23
2017-04-15T02:49:08.186Z,1004.25
2017-04-15T02:49:48.637Z,1004.25
2017-04-15T02:50:29.096Z,1004.23
2017-04-15T02:51:09.548Z,1004.22
2017-04-15T02:51:50.012Z,1004.24
2017-04-15T02:52:30.477Z,1004.24
2017-04-15T02:53:10.939Z,1004.22
2017-04-15T02:53:51.409Z,1004.2
2017-04-15T02:54:31.861Z,1004.24
2017-04-15T02:56:44.595Z,1004.22
2017-04-15T02:57:25.061Z,1004.22
2017-04-15T02:58:05.519Z,1004.23
2017-04-15T03:00:03.139Z,1004.21
2017-04-15T03:00:43.602Z,1004.21
2017-04-15T03:01:24.109Z,1004.22
2017-04-15T03:02:04.573Z,1004.2
2017-04-15T03:02:45.008Z,1004.18
2017-04-15T03:03:25.433Z,1004.19
2017-04-15T03:04:05.877Z,1004.17
2017-04-15T03:04:46.349Z,1004.19
2017-04-15T03:05:26.795Z,1004.18
2017-04-15T03:06:07.242Z,1004.14
2017-04-15T03:06:47.708Z,1004.14
2017-04-15T03:07:28.188Z,1004.18
2017-04-15T03:08:08.640Z,1004.14
2017-04-15T03:08:49.127Z,1004.16
2017-04-15T03:09:29.556Z,1004.13
2017-04-15T03:10:09.992Z,1004.15
2017-04-15T03:10:50.449Z,1004.16
2017-04-15T03:11:30.914Z,1004.13
2017-04-15T03:13:28.575Z,1004.14
2017-04-15T03:14:09.022Z,1004.14
2017-04-15T03:14:49.486Z,1004.12
2017-04-15T03:15:29.940Z,1004.14
2017-04-15T03:17:42.666Z,1004.15
2017-04-15T03:18:23.126Z,1004.12
2017-04-15T03:19:03.603Z,1004.13
2017-04-15T03:19:44.049Z,1004.14
2017-04-15T03:21:36.609Z,1004.09
2017-04-15T03:22:17.079Z,1004.09
2017-04-15T03:22:57.543Z,1004.09
2017-04-15T03:23:38.007Z,1004.12
2017-04-15T03:24:18.463Z,1004.1
2017-04-15T03:26:31.148Z,1004.1
2017-04-15T03:27:11.636Z,1004.09
2017-04-15T03:27:52.113Z,1004.06
2017-04-15T03:28:32.580Z,1004.06
2017-04-15T03:29:13.054Z,1004.08
2017-04-15T03:29:53.514Z,1004.09
2017-04-15T03:30:33.961Z,1004.09
2017-04-15T03:32:31.641Z,1004.05
2017-04-15T03:33:12.111Z,1004.09
2017-04-15T03:33:52.590Z,1004.08
2017-04-15T03:34:33.078Z,1004.1
2017-04-15T03:35:14.451Z,1004.08
2017-04-15T03:35:54.889Z,1004.1
2017-04-15T03:38:12.678Z,1004.04
2017-04-15T03:38:53.281Z,1004.09
2017-04-15T03:39:33.743Z,1004.08
2017-04-15T03:40:14.208Z,1004.08
2017-04-15T03:40:54.633Z,1004.02
2017-04-15T03:41:35.107Z,1004.08
2017-04-15T03:42:15.584Z,1004.05
2017-04-15T03:44:43.552Z,1004.06
2017-04-15T03:45:23.987Z,1004.03
2017-04-15T03:46:04.435Z,1004.07
2017-04-15T03:48:02.861Z,1004.09
2017-04-15T03:48:43.226Z,1004.05
2017-04-15T03:49:23.675Z,1004.06
2017-04-15T03:50:04.142Z,1004.07
2017-04-15T03:50:44.611Z,1004.09
2017-04-15T03:52:42.243Z,1004.09
2017-04-15T03:53:22.721Z,1004.07
2017-04-15T03:55:50.661Z,1004.1
2017-04-15T03:56:31.140Z,1004.11
2017-04-15T03:57:11.627Z,1004.11
2017-04-15T03:57:52.106Z,1004.09
2017-04-15T03:58:32.525Z,1004.12
2017-04-15T03:59:13.012Z,1004.08
2017-04-15T03:59:53.469Z,1004.13
2017-04-15T04:00:33.920Z,1004.09
2017-04-15T04:01:14.397Z,1004.08
2017-04-15T04:01:54.824Z,1004.12
2017-04-15T04:02:35.247Z,1004.11
2017-04-15T04:03:15.696Z,1004.08
2017-04-15T04:03:56.161Z,1004.08
2017-04-15T04:04:36.631Z,1004.1
2017-04-15T04:05:17.064Z,1004.1
2017-04-15T04:05:57.491Z,1004.1
2017-04-15T04:06:37.908Z,1004.08
2017-04-15T04:08:35.553Z,1004.07
2017-04-15T04:09:16.046Z,1004.09
2017-04-15T04:09:56.523Z,1004.12
2017-04-15T04:10:37.013Z,1004.07
2017-04-15T04:11:17.482Z,1004.09
2017-04-15T04:11:57.940Z,1004.05
2017-04-15T04:12:38.374Z,1004.06
2017-04-15T04:13:18.858Z,1004.07
2017-04-15T04:13:59.309Z,1004.07
2017-04-15T04:14:39.767Z,1004.07
2017-04-15T04:15:20.229Z,1004.06
2017-04-15T04:16:00.671Z,1004.04
2017-04-15T04:16:41.143Z,1004.06
2017-04-15T04:18:39.248Z,1004.02
2017-04-15T04:21:07.159Z,1004.03
2017-04-15T04:21:47.639Z,1004
2017-04-15T04:22:28.093Z,1004.05
2017-04-15T04:23:08.555Z,1004.05
2017-04-15T04:23:49.015Z,1004.03
2017-04-15T04:24:29.481Z,1004.03
2017-04-15T04:25:09.958Z,1004.02
2017-04-15T04:25:50.413Z,1004.04
2017-04-15T04:26:30.848Z,1004.04
2017-04-15T04:28:49.804Z,1004.02
2017-04-15T04:29:30.018Z,1004.07
2017-04-15T04:30:10.474Z,1004.08
2017-04-15T04:30:50.886Z,1004.03
2017-04-15T04:32:43.443Z,1004.06
2017-04-15T04:33:23.910Z,1004.05
2017-04-15T04:34:04.361Z,1004.02
2017-04-15T04:34:44.833Z,1004
2017-04-15T04:35:25.286Z,1003.98
2017-04-15T04:36:05.728Z,1004.02
2017-04-15T04:36:46.183Z,1004.03
2017-04-15T04:39:03.936Z,1003.98
2017-04-15T04:39:44.367Z,1003.99
2017-04-15T04:40:24.823Z,1004
2017-04-15T04:41:05.308Z,1003.98
2017-04-15T04:41:45.780Z,1004
2017-04-15T04:42:26.210Z,1004.02
2017-04-15T04:43:06.674Z,1004.04
2017-04-15T04:43:47.141Z,1004.06
2017-04-15T04:44:27.653Z,1003.99
2017-04-15T04:45:08.089Z,1004.06
2017-04-15T04:45:48.523Z,1004.06
2017-04-15T04:46:28.964Z,1004.03
2017-04-15T04:47:09.420Z,1004.04
2017-04-15T04:47:49.863Z,1004.04
2017-04-15T04:48:30.275Z,1004.05
2017-04-15T04:49:10.715Z,1004.04
2017-04-15T04:49:51.178Z,1004.09
2017-04-15T04:50:31.626Z,1004.06
2017-04-15T04:51:12.089Z,1004.02
2017-04-15T04:51:52.531Z,1004.05
2017-04-15T04:52:32.961Z,1004.05
2017-04-15T04:54:46.750Z,1004.09
2017-04-15T04:55:27.180Z,1004.08
2017-04-15T04:56:07.653Z,1004.08
2017-04-15T04:58:20.349Z,1004.07
2017-04-15T04:59:00.788Z,1004.09
2017-04-15T05:00:53.372Z,1004.11
2017-04-15T05:01:33.795Z,1004.11
2017-04-15T05:02:14.263Z,1004.12
2017-04-15T05:02:54.731Z,1004.1
2017-04-15T05:03:35.170Z,1004.11
2017-04-15T05:04:15.648Z,1004.12
2017-04-15T05:06:43.578Z,1004.12
2017-04-15T05:07:24.055Z,1004.12
2017-04-15T05:08:04.520Z,1004.13
2017-04-15T05:10:17.217Z,1004.19
2017-04-15T05:10:57.733Z,1004.17
2017-04-15T05:11:38.189Z,1004.19
2017-04-15T05:12:18.675Z,1004.18
2017-04-15T05:12:59.143Z,1004.19
2017-04-15T05:13:39.568Z,1004.2
2017-04-15T05:14:20.011Z,1004.21
2017-04-15T05:16:48.020Z,1004.29
2017-04-15T05:17:28.403Z,1004.21
2017-04-15T05:18:08.853Z,1004.26
2017-04-15T05:18:49.316Z,1004.23
2017-04-15T05:19:29.774Z,1004.26
2017-04-15T05:20:10.225Z,1004.25
2017-04-15T05:20:50.682Z,1004.26
2017-04-15T05:21:31.119Z,1004.28
2017-04-15T05:22:11.573Z,1004.33
2017-04-15T05:22:51.997Z,1004.29
2017-04-15T05:23:32.442Z,1004.32
2017-04-15T05:24:12.883Z,1004.31
2017-04-15T05:24:53.326Z,1004.31
2017-04-15T05:25:33.778Z,1004.33
2017-04-15T05:26:14.225Z,1004.31
2017-04-15T05:26:54.681Z,1004.34
2017-04-15T05:27:35.125Z,1004.32
2017-04-15T05:30:03.043Z,1004.32
2017-04-15T05:30:43.545Z,1004.29
2017-04-15T05:31:24.011Z,1004.37
2017-04-15T05:32:04.477Z,1004.34
2017-04-15T05:32:44.923Z,1004.39
2017-04-15T05:33:25.373Z,1004.4
2017-04-15T05:34:05.832Z,1004.38
2017-04-15T05:34:46.271Z,1004.38
2017-04-15T05:35:27.647Z,1004.37
2017-04-15T05:36:08.130Z,1004.38
2017-04-15T05:38:25.945Z,1004.36
2017-04-15T05:39:06.392Z,1004.4
2017-04-15T05:39:46.853Z,1004.4
2017-04-15T05:40:27.290Z,1004.44
2017-04-15T05:41:07.740Z,1004.41
2017-04-15T05:41:48.202Z,1004.43
2017-04-15T05:42:28.676Z,1004.44
2017-04-15T05:44:46.483Z,1004.43
2017-04-15T05:45:26.959Z,1004.49
2017-04-15T05:47:24.588Z,1004.42
2017-04-15T05:48:05.022Z,1004.44
2017-04-15T05:48:45.488Z,1004.44
2017-04-15T05:49:25.942Z,1004.44
2017-04-15T05:50:06.394Z,1004.45
2017-04-15T05:52:24.223Z,1004.42
2017-04-15T05:53:04.680Z,1004.41
2017-04-15T05:53:45.165Z,1004.43
2017-04-15T05:54:25.592Z,1004.45
2017-04-15T05:55:06.036Z,1004.44
2017-04-15T05:55:46.456Z,1004.48
2017-04-15T05:58:14.487Z,1004.49
2017-04-15T05:58:54.879Z,1004.54
2017-04-15T05:59:35.331Z,1004.5
2017-04-15T06:00:15.810Z,1004.49
2017-04-15T06:02:13.440Z,1004.58
2017-04-15T06:02:53.879Z,1004.56
2017-04-15T06:03:34.332Z,1004.57
2017-04-15T06:05:31.982Z,1004.6
2017-04-15T06:06:12.418Z,1004.58
2017-04-15T06:08:04.995Z,1004.6
2017-04-15T06:08:45.465Z,1004.59
2017-04-15T06:09:25.910Z,1004.6
2017-04-15T06:10:06.379Z,1004.6
2017-04-15T06:10:46.843Z,1004.6
2017-04-15T06:11:27.228Z,1004.6
2017-04-15T06:12:07.717Z,1004.58
2017-04-15T06:12:48.135Z,1004.61
2017-04-15T06:14:45.754Z,1004.59
2017-04-15T06:15:26.210Z,1004.61
2017-04-15T06:16:06.630Z,1004.63
2017-04-15T06:16:47.085Z,1004.62
2017-04-15T06:17:27.517Z,1004.63
2017-04-15T06:18:07.939Z,1004.6
2017-04-15T06:20:25.754Z,1004.62
2017-04-15T06:21:06.246Z,1004.58
2017-04-15T06:21:46.747Z,1004.62
2017-04-15T06:22:27.173Z,1004.59
2017-04-15T06:23:07.612Z,1004.62
2017-04-15T06:23:48.057Z,1004.63
2017-04-15T06:24:28.547Z,1004.62
2017-04-15T06:25:09.012Z,1004.66
2017-04-15T06:27:27.451Z,1004.68
2017-04-15T06:28:07.880Z,1004.67
2017-04-15T06:28:48.341Z,1004.66
2017-04-15T06:29:28.817Z,1004.69
2017-04-15T06:30:09.244Z,1004.75
2017-04-15T06:30:49.724Z,1004.72
2017-04-15T06:31:30.172Z,1004.7
2017-04-15T06:32:10.635Z,1004.73
2017-04-15T06:32:51.117Z,1004.71
2017-04-15T06:33:31.580Z,1004.69
2017-04-15T06:34:12.028Z,1004.66
2017-04-15T06:34:52.458Z,1004.64
2017-04-15T06:35:32.874Z,1004.74
2017-04-15T06:36:13.332Z,1004.68
2017-04-15T06:38:41.311Z,1004.69
2017-04-15T06:39:21.738Z,1004.77
2017-04-15T06:40:02.194Z,1004.75
2017-04-15T06:40:42.665Z,1004.75
2017-04-15T06:42:35.203Z,1004.74
2017-04-15T06:45:03.236Z,1004.72
2017-04-15T06:45:43.721Z,1004.74
2017-04-15T06:47:56.413Z,1004.75
2017-04-15T06:48:36.848Z,1004.72
2017-04-15T06:49:17.306Z,1004.71
2017-04-15T06:49:57.733Z,1004.69
2017-04-15T06:50:38.213Z,1004.72
2017-04-15T06:51:18.690Z,1004.7
2017-04-15T06:51:59.152Z,1004.74
2017-04-15T06:54:11.890Z,1004.77
2017-04-15T06:54:52.388Z,1004.76
2017-04-15T06:55:32.856Z,1004.8
2017-04-15T06:56:13.322Z,1004.73
2017-04-15T06:56:53.781Z,1004.77
2017-04-15T06:57:34.227Z,1004.75
2017-04-15T06:58:14.689Z,1004.71
2017-04-15T06:58:55.123Z,1004.74
2017-04-15T06:59:35.562Z,1004.75
2017-04-15T07:00:16.023Z,1004.72
2017-04-15T07:00:56.490Z,1004.79
2017-04-15T07:01:36.920Z,1004.82
2017-04-15T07:03:54.744Z,1004.79
2017-04-15T07:04:35.202Z,1004.74
2017-04-15T07:05:15.661Z,1004.77
2017-04-15T07:05:56.125Z,1004.76
2017-04-15T07:06:36.620Z,1004.79
2017-04-15T07:07:17.080Z,1004.8
2017-04-15T07:07:57.553Z,1004.82
2017-04-15T07:08:38.001Z,1004.84
2017-04-15T07:09:18.467Z,1004.78
2017-04-15T07:09:58.978Z,1004.81
2017-04-15T07:10:39.429Z,1004.81
2017-04-15T07:11:19.895Z,1004.84
2017-04-15T07:13:17.553Z,1004.86
2017-04-15T07:13:58.021Z,1004.82
2017-04-15T07:14:38.461Z,1004.88
2017-04-15T07:15:18.908Z,1004.83
2017-04-15T07:15:59.328Z,1004.88
2017-04-15T07:16:39.851Z,1004.86
2017-04-15T07:17:20.300Z,1004.89
2017-04-15T07:18:00.718Z,1004.84
2017-04-15T07:18:41.167Z,1004.89
2017-04-15T07:19:21.574Z,1004.91
2017-04-15T07:20:02.015Z,1004.92
2017-04-15T07:20:42.504Z,1004.93
2017-04-15T07:21:22.927Z,1004.98
2017-04-15T07:23:41.303Z,1004.98
2017-04-15T07:24:21.758Z,1004.89
2017-04-15T07:25:02.211Z,1004.92
2017-04-15T07:25:42.674Z,1004.97
2017-04-15T07:26:23.138Z,1004.95
2017-04-15T07:27:03.568Z,1004.94
2017-04-15T07:27:44.008Z,1004.98
2017-04-15T07:29:36.619Z,1004.96
2017-04-15T07:30:17.086Z,1005.07
2017-04-15T07:30:57.557Z,1005.05
2017-04-15T07:31:38.033Z,1005.05
2017-04-15T07:32:18.539Z,1005.05
2017-04-15T07:34:16.153Z,1005.19
2017-04-15T07:34:56.636Z,1005.21
2017-04-15T07:35:37.093Z,1005.28
2017-04-15T07:36:17.560Z,1005.38
2017-04-15T07:36:58.016Z,1005.46
2017-04-15T07:39:15.896Z,1005.35
2017-04-15T07:39:56.361Z,1005.34
2017-04-15T07:42:09.239Z,1005.26
2017-04-15T07:42:49.759Z,1005.25
2017-04-15T07:43:30.216Z,1005.26
2017-04-15T07:44:10.688Z,1005.21
2017-04-15T07:44:51.142Z,1005.19
2017-04-15T07:45:31.633Z,1005.18
2017-04-15T07:46:12.105Z,1005.18
2017-04-15T07:48:24.798Z,1005.22
2017-04-15T07:49:05.307Z,1005.27
2017-04-15T07:49:45.738Z,1005.31
2017-04-15T07:51:43.405Z,1005.65
2017-04-15T07:52:23.859Z,1005.44
2017-04-15T07:54:51.799Z,1005.34
2017-04-15T07:55:32.297Z,1005.27
2017-04-15T07:56:12.755Z,1005.34
2017-04-15T07:58:40.715Z,1005.37
2017-04-15T07:59:21.137Z,1005.37
2017-04-15T08:00:01.602Z,1005.37
2017-04-15T08:00:42.065Z,1005.39
2017-04-15T08:01:22.566Z,1005.37
2017-04-15T08:02:03.048Z,1005.31
2017-04-15T08:02:43.518Z,1005.21
2017-04-15T08:03:23.984Z,1005.32
2017-04-15T08:05:17.119Z,1005.31
2017-04-15T08:05:57.567Z,1005.33
2017-04-15T08:06:38.032Z,1005.3
2017-04-15T08:07:18.543Z,1005.26
2017-04-15T08:07:59.012Z,1005.26
2017-04-15T08:08:39.425Z,1005.25
2017-04-15T08:10:57.241Z,1005.21
2017-04-15T08:11:37.707Z,1005.25
2017-04-15T08:12:18.176Z,1005.38
2017-04-15T08:12:58.627Z,1005.4
2017-04-15T08:13:39.114Z,1005.42
2017-04-15T08:14:19.553Z,1005.44
2017-04-15T08:15:00.010Z,1005.49
2017-04-15T08:17:17.873Z,1005.48
2017-04-15T08:17:58.325Z,1005.39
2017-04-15T08:18:38.790Z,1005.42
2017-04-15T08:19:19.798Z,1005.43
2017-04-15T08:21:33.521Z,1005.46
2017-04-15T08:22:13.956Z,1005.45
2017-04-15T08:22:54.433Z,1005.48
2017-04-15T08:23:34.912Z,1005.45
2017-04-15T08:24:15.428Z,1005.5
2017-04-15T08:24:55.869Z,1005.55
2017-04-15T08:25:36.338Z,1005.52
2017-04-15T08:26:16.809Z,1005.66
2017-04-15T08:26:57.254Z,1005.56
2017-04-15T08:27:37.710Z,1005.53
2017-04-15T08:28:18.177Z,1005.53
2017-04-15T08:28:58.633Z,1005.57
2017-04-15T08:31:26.640Z,1005.47
2017-04-15T08:32:07.139Z,1005.43
2017-04-15T08:32:47.599Z,1005.49
2017-04-15T08:34:40.172Z,1005.62
2017-04-15T08:35:20.639Z,1005.54
2017-04-15T08:36:01.107Z,1005.59
2017-04-15T08:38:29.095Z,1005.58
2017-04-15T08:39:09.588Z,1005.53
2017-04-15T08:39:50.096Z,1005.59
2017-04-15T08:40:30.585Z,1005.56
2017-04-15T08:41:11.035Z,1005.56
2017-04-15T08:41:51.487Z,1005.65
2017-04-15T08:42:31.932Z,1005.6
2017-04-15T08:43:12.391Z,1005.61
2017-04-15T08:43:52.839Z,1005.67
2017-04-15T08:44:33.304Z,1005.71
2017-04-15T08:45:13.749Z,1005.72
2017-04-15T08:45:54.217Z,1005.74
2017-04-15T08:46:34.644Z,1005.78
2017-04-15T08:47:15.105Z,1005.79
2017-04-15T08:47:55.563Z,1005.86
2017-04-15T08:48:35.988Z,1005.88
2017-04-15T08:49:16.470Z,1005.93
2017-04-15T08:49:56.922Z,1005.81
2017-04-15T08:50:37.375Z,1005.78
2017-04-15T08:51:17.805Z,1005.76
2017-04-15T08:53:15.439Z,1005.82
2017-04-15T08:53:55.929Z,1005.75
2017-04-15T08:54:36.409Z,1005.83
2017-04-15T08:55:16.902Z,1005.79
2017-04-15T08:55:57.378Z,1005.83
2017-04-15T08:58:10.400Z,1005.94
2017-04-15T08:58:50.877Z,1005.95
2017-04-15T08:59:31.374Z,1005.96
2017-04-15T09:00:11.848Z,1005.97
2017-04-15T09:00:52.347Z,1006.04
2017-04-15T09:01:32.819Z,1006.08
2017-04-15T09:02:13.267Z,1006.07
2017-04-15T09:02:53.734Z,1006.1
2017-04-15T09:03:34.175Z,1006.13
2017-04-15T09:04:14.670Z,1006.11
2017-04-15T09:04:55.141Z,1006
2017-04-15T09:07:12.958Z,1005.99
2017-04-15T09:07:53.460Z,1006.07
2017-04-15T09:08:33.937Z,1006.1
2017-04-15T09:09:14.443Z,1006.05
2017-04-15T09:09:54.936Z,1006.19
2017-04-15T09:12:12.780Z,1006.19
2017-04-15T09:12:53.282Z,1006.19
2017-04-15T09:13:33.759Z,1006.06
2017-04-15T09:14:14.230Z,1005.97
2017-04-15T09:14:54.695Z,1006.1
2017-04-15T09:15:35.185Z,1006.16
2017-04-15T09:16:15.627Z,1006.03
2017-04-15T09:18:08.218Z,1005.95
2017-04-15T09:18:48.709Z,1006
2017-04-15T09:19:29.202Z,1006.03
2017-04-15T09:20:09.667Z,1005.96
2017-04-15T09:20:50.108Z,1005.99
2017-04-15T09:23:03.053Z,1006.23
2017-04-15T09:23:43.529Z,1006.17
2017-04-15T09:24:23.994Z,1006.15
2017-04-15T09:25:04.438Z,1006.15
2017-04-15T09:27:17.193Z,1006.04
2017-04-15T09:27:57.636Z,1006.08
2017-04-15T09:30:25.567Z,1005.9
2017-04-15T09:31:06.050Z,1006.01
2017-04-15T09:31:46.561Z,1005.88
2017-04-15T09:32:27.042Z,1006
2017-04-15T09:33:07.545Z,1005.98
2017-04-15T09:33:47.998Z,1006.05
2017-04-15T09:36:00.746Z,1006.13
2017-04-15T09:36:41.257Z,1006.19
2017-04-15T09:37:21.727Z,1006.22
2017-04-15T09:38:02.240Z,1006.27
2017-04-15T09:38:42.696Z,1006.36
2017-04-15T09:39:23.192Z,1006.47
2017-04-15T09:41:35.924Z,1006.48
2017-04-15T09:42:16.408Z,1006.43
2017-04-15T09:42:56.904Z,1006.39
2017-04-15T09:43:37.405Z,1006.34
2017-04-15T09:44:17.903Z,1006.28
2017-04-15T09:44:58.373Z,1006.22
2017-04-15T09:45:38.830Z,1006.14
2017-04-15T09:48:06.823Z,1005.96
2017-04-15T09:48:47.263Z,1005.96
2017-04-15T09:49:27.733Z,1005.97
2017-04-15T09:50:08.173Z,1005.87
2017-04-15T09:50:48.643Z,1005.84
2017-04-15T09:51:29.082Z,1005.87
2017-04-15T09:52:09.554Z,1005.83
2017-04-15T09:52:50.015Z,1005.83
2017-04-15T09:53:30.457Z,1005.82
2017-04-15T09:54:10.922Z,1005.79
2017-04-15T09:54:51.370Z,1005.75
2017-04-15T09:55:31.842Z,1005.72
2017-04-15T09:56:12.291Z,1005.77
2017-04-15T09:56:52.741Z,1005.81
2017-04-15T09:57:33.216Z,1005.69
2017-04-15T09:58:13.653Z,1005.81
2017-04-15T09:58:54.110Z,1005.88
2017-04-15T10:01:07.060Z,1005.96
2017-04-15T10:01:47.551Z,1005.9
2017-04-15T10:02:28.023Z,1005.85
2017-04-15T10:04:45.854Z,1005.58
2017-04-15T10:05:26.307Z,1005.68
2017-04-15T10:06:06.795Z,1005.57
2017-04-15T10:06:47.311Z,1005.61
2017-04-15T10:07:27.786Z,1005.49
2017-04-15T10:09:46.642Z,1005.65
2017-04-15T10:10:27.036Z,1005.76
2017-04-15T10:11:07.494Z,1005.87
2017-04-15T10:13:20.181Z,1005.87
2017-04-15T10:14:00.692Z,1005.89
2017-04-15T10:14:41.167Z,1005.95
2017-04-15T10:15:21.703Z,1005.76
2017-04-15T10:16:02.177Z,1005.76
2017-04-15T10:16:42.680Z,1005.79
2017-04-15T10:17:23.147Z,1005.78
2017-04-15T10:18:03.649Z,1005.73
2017-04-15T10:18:44.127Z,1005.69
2017-04-15T10:19:24.610Z,1005.64
2017-04-15T10:20:05.084Z,1005.7
2017-04-15T10:20:45.535Z,1005.55
2017-04-15T10:21:25.955Z,1005.57
2017-04-15T10:22:06.391Z,1005.59
2017-04-15T10:22:46.903Z,1005.57
2017-04-15T10:23:27.348Z,1005.65
2017-04-15T10:25:57.063Z,1005.6
2017-04-15T10:26:37.448Z,1005.63
2017-04-15T10:27:17.888Z,1005.61
2017-04-15T10:27:58.345Z,1005.52
2017-04-15T10:28:38.848Z,1005.63
2017-04-15T10:29:19.284Z,1005.58
2017-04-15T10:31:32.059Z,1005.86
2017-04-15T10:32:12.482Z,1005.89
2017-04-15T10:32:52.969Z,1005.96
2017-04-15T10:33:33.460Z,1005.92
2017-04-15T10:34:13.915Z,1005.82
2017-04-15T10:34:54.371Z,1005.83
2017-04-15T10:35:34.816Z,1005.84
2017-04-15T10:37:32.440Z,1005.74
2017-04-15T10:38:13.049Z,1005.71
2017-04-15T10:38:53.536Z,1005.75
2017-04-15T10:39:34.017Z,1005.74
2017-04-15T10:40:14.511Z,1005.72
2017-04-15T10:40:54.972Z,1005.68
2017-04-15T10:41:35.457Z,1005.72
2017-04-15T10:42:15.943Z,1005.75
2017-04-15T10:42:56.384Z,1005.73
2017-04-15T10:43:36.846Z,1005.82
2017-04-15T10:44:17.289Z,1005.84
2017-04-15T10:44:57.756Z,1005.78
2017-04-15T10:45:38.206Z,1005.88
2017-04-15T10:47:30.790Z,1006.03